createdAt,value
2022-10-25T00:01:36.232Z,96522.47
2022-10-25T00:04:03.100Z,96519.53
2022-10-25T00:06:29.838Z,96552.84
2022-10-25T00:08:56.485Z,96554.78
2022-10-25T00:11:24.817Z,96544.72
2022-10-25T00:13:52.752Z,96611.16
2022-10-25T00:16:22.883Z,96572.00
2022-10-25T00:18:49.487Z,96523.28
2022-10-25T00:21:16.086Z,96526.72
2022-10-25T00:23:42.669Z,96492.59
2022-10-25T00:26:09.740Z,96629.22
2022-10-25T00:28:36.465Z,96639.47
2022-10-25T00:31:04.397Z,96534.50
2022-10-25T00:33:34.685Z,96569.63
2022-10-25T00:36:18.415Z,96578.88
2022-10-25T00:38:46.398Z,96533.38
2022-10-25T00:41:14.519Z,96631.22
2022-10-25T00:43:43.125Z,96559.38
2022-10-25T00:46:19.710Z,96643.72
2022-10-25T00:49:02.496Z,96645.66
2022-10-25T00:51:33.243Z,96617.06
2022-10-25T00:53:59.897Z,96517.06
2022-10-25T00:56:28.259Z,96649.72
2022-10-25T00:58:58.368Z,96487.81
2022-10-25T01:01:25.130Z,96430.78
2022-10-25T01:03:52.697Z,96544.34
2022-10-25T01:06:25.399Z,96569.03
2022-10-25T01:09:12.112Z,96508.41
2022-10-25T01:11:38.892Z,96563.28
2022-10-25T01:14:06.298Z,96647.31
2022-10-25T01:16:57.254Z,96634.50
2022-10-25T01:20:01.226Z,96637.06
2022-10-25T01:22:48.136Z,96643.38
2022-10-25T01:25:55.671Z,96641.41
2022-10-25T01:28:52.363Z,96634.19
2022-10-25T01:31:39.684Z,96664.41
2022-10-25T01:34:25.891Z,96582.09
2022-10-25T01:37:07.573Z,96672.06
2022-10-25T01:39:36.786Z,96622.69
2022-10-25T01:42:09.361Z,96658.84
2022-10-25T01:44:56.126Z,96660.81
2022-10-25T01:47:41.480Z,96601.31
2022-10-25T01:50:19.429Z,96645.06
2022-10-25T01:52:46.114Z,96547.00
2022-10-25T01:55:12.935Z,96588.66
2022-10-25T01:58:08.047Z,96542.00
2022-10-25T02:01:10.423Z,96648.22
2022-10-25T02:03:40.162Z,96399.72
2022-10-25T02:06:27.016Z,96645.81
2022-10-25T02:09:03.538Z,96628.28
2022-10-25T02:11:31.287Z,96568.91
2022-10-25T02:14:25.841Z,96616.25
2022-10-25T02:17:09.293Z,96644.69
2022-10-25T02:19:47.508Z,96603.41
2022-10-25T02:22:14.082Z,96609.75
2022-10-25T02:24:41.633Z,96644.06
2022-10-25T02:27:08.215Z,96580.78
2022-10-25T02:29:34.972Z,96547.31
2022-10-25T02:32:02.663Z,96643.06
2022-10-25T02:34:29.275Z,96505.22
2022-10-25T02:36:55.926Z,96582.75
2022-10-25T02:39:26.401Z,96639.19
2022-10-25T02:41:55.647Z,96653.47
2022-10-25T02:44:22.273Z,96662.78
2022-10-25T02:46:48.823Z,96613.16
2022-10-25T02:49:15.426Z,96585.19
2022-10-25T02:51:42.055Z,96417.53
2022-10-25T02:54:08.684Z,96641.47
2022-10-25T02:56:36.357Z,96633.81
2022-10-25T02:59:03.080Z,96532.53
2022-10-25T03:01:29.912Z,96493.06
2022-10-25T03:03:56.566Z,96602.44
2022-10-25T03:06:23.150Z,96669.91
2022-10-25T03:08:49.792Z,96563.75
2022-10-25T03:11:16.632Z,96339.97
2022-10-25T03:13:43.454Z,96647.63
2022-10-25T03:16:10.209Z,96497.78
2022-10-25T03:18:37.032Z,96591.06
2022-10-25T03:21:03.895Z,96684.38
2022-10-25T03:23:30.683Z,96354.38
2022-10-25T03:25:58.132Z,96631.06
2022-10-25T03:28:24.950Z,96506.22
2022-10-25T03:30:51.525Z,96456.19
2022-10-25T03:33:18.117Z,96345.16
2022-10-25T03:35:44.799Z,96523.44
2022-10-25T03:38:11.405Z,96627.16
2022-10-25T03:40:38.001Z,96616.41
2022-10-25T03:43:04.589Z,96602.78
2022-10-25T03:45:31.200Z,96525.06
2022-10-25T03:47:57.935Z,96578.06
2022-10-25T03:50:24.508Z,96543.63
2022-10-25T03:52:51.112Z,96469.56
2022-10-25T03:55:17.785Z,96615.44
2022-10-25T03:57:44.868Z,96571.06
2022-10-25T04:00:12.313Z,96663.53
2022-10-25T04:02:39.030Z,96394.38
2022-10-25T04:05:05.913Z,96581.97
2022-10-25T04:07:32.460Z,96512.56
2022-10-25T04:09:59.031Z,96415.44
2022-10-25T04:12:25.644Z,96512.09
2022-10-25T04:14:52.209Z,96526.56
2022-10-25T04:17:18.980Z,96424.06
2022-10-25T04:19:45.718Z,96598.53
2022-10-25T04:22:12.524Z,96463.84
2022-10-25T04:24:39.308Z,96593.19
2022-10-25T04:27:05.876Z,96607.00
2022-10-25T04:29:32.440Z,96577.59
2022-10-25T04:31:59.151Z,96578.19
2022-10-25T04:34:25.892Z,96524.25
2022-10-25T04:36:52.471Z,96403.53
2022-10-25T04:39:19.160Z,96535.13
2022-10-25T04:41:45.886Z,96423.81
2022-10-25T04:44:12.508Z,96602.22
2022-10-25T04:46:39.066Z,96637.31
2022-10-25T04:49:05.865Z,96392.00
2022-10-25T04:51:32.574Z,96645.59
2022-10-25T04:53:59.205Z,96438.00
2022-10-25T04:56:25.939Z,96584.94
2022-10-25T04:58:52.589Z,96494.72
2022-10-25T05:01:19.524Z,96571.78
2022-10-25T05:03:46.228Z,96439.97
2022-10-25T05:06:17.561Z,96584.81
2022-10-25T05:08:45.575Z,96557.16
2022-10-25T05:11:12.825Z,96590.16
2022-10-25T05:13:39.805Z,96584.00
2022-10-25T05:16:07.050Z,96507.44
2022-10-25T05:18:34.322Z,96636.00
2022-10-25T05:21:04.251Z,96619.25
2022-10-25T05:23:31.024Z,96629.69
2022-10-25T05:26:02.397Z,96459.66
2022-10-25T05:28:29.178Z,96655.88
2022-10-25T05:30:55.848Z,96670.38
2022-10-25T05:33:22.580Z,96619.59
2022-10-25T05:35:49.144Z,96591.97
2022-10-25T05:38:15.850Z,96680.78
2022-10-25T05:40:42.497Z,96436.28
2022-10-25T05:43:09.238Z,96629.84
2022-10-25T05:45:35.915Z,96410.91
2022-10-25T05:48:02.707Z,96677.84
2022-10-25T05:50:29.310Z,96630.50
2022-10-25T05:52:55.966Z,96644.94
2022-10-25T05:55:22.530Z,96679.47
2022-10-25T05:57:52.188Z,96696.53
2022-10-25T06:00:18.785Z,96590.00
2022-10-25T06:02:45.717Z,96673.88
2022-10-25T06:05:12.706Z,96603.63
2022-10-25T06:07:39.519Z,96695.72
2022-10-25T06:10:10.396Z,96734.47
2022-10-25T06:12:37.357Z,96582.84
2022-10-25T06:15:04.209Z,96623.31
2022-10-25T06:17:30.820Z,96648.97
2022-10-25T06:19:57.574Z,96752.97
2022-10-25T06:22:24.240Z,96747.44
2022-10-25T06:24:50.806Z,96557.56
2022-10-25T06:27:17.367Z,96700.75
2022-10-25T06:29:44.008Z,96562.81
2022-10-25T06:32:10.643Z,96721.59
2022-10-25T06:34:37.271Z,96633.41
2022-10-25T06:37:03.878Z,96591.09
2022-10-25T06:39:30.500Z,96650.81
2022-10-25T06:41:57.203Z,96739.00
2022-10-25T06:44:23.825Z,96686.78
2022-10-25T06:47:15.778Z,96696.06
2022-10-25T06:49:37.335Z,96751.38
2022-10-25T06:52:03.894Z,96768.81
2022-10-25T06:54:30.469Z,96540.94
2022-10-25T06:56:57.970Z,96630.38
2022-10-25T06:59:24.774Z,96704.03
2022-10-25T07:01:51.551Z,96730.91
2022-10-25T07:04:18.256Z,96730.22
2022-10-25T07:06:44.889Z,96535.47
2022-10-25T07:09:12.550Z,96550.06
2022-10-25T07:11:39.335Z,96584.69
2022-10-25T07:14:06.020Z,96634.78
2022-10-25T07:16:32.759Z,96571.06
2022-10-25T07:19:00.072Z,96496.16
2022-10-25T07:21:26.892Z,96502.31
2022-10-25T07:23:53.525Z,96483.00
2022-10-25T07:26:22.109Z,96790.09
2022-10-25T07:28:49.792Z,96676.34
2022-10-25T07:31:18.605Z,96624.47
2022-10-25T07:33:45.158Z,96711.03
2022-10-25T07:36:12.255Z,96699.41
2022-10-25T07:38:39.044Z,96723.50
2022-10-25T07:41:05.848Z,96753.81
2022-10-25T07:43:32.415Z,96714.69
2022-10-25T07:45:59.051Z,96747.09
2022-10-25T07:48:25.754Z,96718.31
2022-10-25T07:50:52.342Z,96596.03
2022-10-25T07:53:19.111Z,96659.94
2022-10-25T07:55:52.450Z,96660.69
2022-10-25T07:58:19.148Z,96648.59
2022-10-25T08:00:45.759Z,96569.06
2022-10-25T08:03:13.264Z,96610.50
2022-10-25T08:05:40.130Z,96611.47
2022-10-25T08:08:06.760Z,96662.81
2022-10-25T08:10:33.735Z,96644.25
2022-10-25T08:13:00.292Z,96726.78
2022-10-25T08:15:26.897Z,96488.25
2022-10-25T08:18:00.235Z,96759.50
2022-10-25T08:20:43.326Z,96639.97
2022-10-25T08:23:13.640Z,96696.03
2022-10-25T08:25:40.448Z,96665.81
2022-10-25T08:28:07.168Z,96700.75
2022-10-25T08:30:33.806Z,96733.06
2022-10-25T08:33:00.478Z,96693.22
2022-10-25T08:35:27.035Z,96731.84
2022-10-25T08:37:53.577Z,96660.44
2022-10-25T08:40:25.157Z,96659.09
2022-10-25T08:43:19.468Z,96767.75
2022-10-25T08:45:57.460Z,96683.31
2022-10-25T08:48:33.189Z,96756.22
2022-10-25T08:51:04.551Z,96652.63
2022-10-25T08:53:40.642Z,96774.72
2022-10-25T08:56:16.586Z,96705.75
2022-10-25T08:58:58.259Z,96739.78
2022-10-25T09:01:36.965Z,96666.16
2022-10-25T09:04:03.872Z,96779.06
2022-10-25T09:06:43.750Z,96700.16
2022-10-25T09:09:25.363Z,96747.69
2022-10-25T09:11:58.132Z,96780.22
2022-10-25T09:14:47.577Z,96783.47
2022-10-25T09:17:21.741Z,96748.88
2022-10-25T09:20:04.391Z,96758.63
2022-10-25T09:22:35.519Z,96639.31
2022-10-25T09:25:57.611Z,96785.53
2022-10-25T09:28:42.400Z,96781.69
2022-10-25T09:31:11.246Z,96670.72
2022-10-25T09:33:37.805Z,96766.38
2022-10-25T09:36:04.547Z,96693.44
2022-10-25T09:38:47.809Z,96793.22
2022-10-25T09:41:24.415Z,96779.66
2022-10-25T09:43:50.921Z,96807.41
2022-10-25T09:46:21.003Z,96792.34
2022-10-25T09:48:53.414Z,96732.25
2022-10-25T09:51:34.120Z,96799.38
2022-10-25T09:54:01.586Z,96696.72
2022-10-25T09:56:32.529Z,96746.06
2022-10-25T09:59:04.400Z,96656.44
2022-10-25T10:01:31.217Z,96761.22
2022-10-25T10:04:05.083Z,96761.53
2022-10-25T10:06:36.630Z,96756.44
2022-10-25T10:09:05.403Z,96623.81
2022-10-25T10:11:32.444Z,96602.69
2022-10-25T10:14:09.157Z,96737.41
2022-10-25T10:16:41.772Z,96768.03
2022-10-25T10:19:16.383Z,96797.22
2022-10-25T10:21:52.706Z,96777.13
2022-10-25T10:24:24.927Z,96712.28
2022-10-25T10:27:12.167Z,96799.94
2022-10-25T10:29:47.443Z,96762.69
2022-10-25T10:32:26.170Z,96736.63
2022-10-25T10:34:55.170Z,96744.13
2022-10-25T10:37:23.021Z,96742.16
2022-10-25T10:40:02.465Z,96794.16
2022-10-25T10:42:38.052Z,96793.78
2022-10-25T10:45:15.417Z,96788.38
2022-10-25T10:47:45.948Z,96726.25
2022-10-25T10:50:22.634Z,96756.00
2022-10-25T10:53:09.304Z,96778.31
2022-10-25T10:55:36.850Z,96778.44
2022-10-25T10:58:14.675Z,96779.75
2022-10-25T11:00:41.746Z,96757.94
2022-10-25T11:03:31.415Z,96727.75
2022-10-25T11:05:59.421Z,96770.00
2022-10-25T11:08:26.120Z,96733.44
2022-10-25T11:10:52.698Z,96649.75
2022-10-25T11:13:19.957Z,96701.56
2022-10-25T11:15:58.634Z,96779.75
2022-10-25T11:18:35.188Z,96730.78
2022-10-25T11:21:26.062Z,96696.19
2022-10-25T11:23:59.423Z,96606.34
2022-10-25T11:26:26.114Z,96788.97
2022-10-25T11:28:58.757Z,96791.78
2022-10-25T11:31:33.270Z,96665.19
2022-10-25T11:34:04.624Z,96794.22
2022-10-25T11:37:10.697Z,96798.81
2022-10-25T11:39:59.259Z,96794.31
2022-10-25T11:42:30.221Z,96801.50
2022-10-25T11:45:15.295Z,96801.78
2022-10-25T11:47:50.924Z,96797.56
2022-10-25T11:50:20.742Z,96563.75
2022-10-25T11:53:24.356Z,96800.19
2022-10-25T11:56:07.063Z,96783.44
2022-10-25T11:58:50.688Z,96801.66
2022-10-25T12:01:35.586Z,96735.91
2022-10-25T12:04:29.748Z,96808.91
2022-10-25T12:07:03.651Z,96813.34
2022-10-25T12:09:42.326Z,96802.41
2022-10-25T12:12:14.894Z,96812.03
2022-10-25T12:14:44.706Z,96766.13
2022-10-25T12:17:31.289Z,96771.97
2022-10-25T12:19:59.655Z,96806.47
2022-10-25T12:22:28.884Z,96749.66
2022-10-25T12:25:19.887Z,96707.53
2022-10-25T12:27:46.480Z,96698.94
2022-10-25T12:30:17.463Z,96785.91
2022-10-25T12:32:54.015Z,96696.56
2022-10-25T12:35:27.043Z,96777.91
2022-10-25T12:37:59.089Z,96750.50
2022-10-25T12:40:26.120Z,96723.44
2022-10-25T12:43:25.916Z,96812.41
2022-10-25T12:46:17.626Z,96814.03
2022-10-25T12:48:55.438Z,96809.81
2022-10-25T12:51:38.233Z,96725.88
2022-10-25T12:54:14.748Z,96723.69
2022-10-25T12:56:45.108Z,96814.22
2022-10-25T12:59:30.282Z,96813.59
2022-10-25T13:02:03.006Z,96812.16
2022-10-25T13:04:35.611Z,96814.41
2022-10-25T13:07:03.649Z,96781.66
2022-10-25T13:09:31.504Z,96770.25
2022-10-25T13:11:59.965Z,96565.75
2022-10-25T13:14:30.930Z,96814.69
2022-10-25T13:17:16.428Z,96820.38
2022-10-25T13:19:55.322Z,96677.69
2022-10-25T13:22:46.686Z,96822.53
2022-10-25T13:25:13.339Z,96823.44
2022-10-25T13:27:42.413Z,96810.72
2022-10-25T13:30:13.130Z,96834.38
2022-10-25T13:32:43.707Z,96743.00
2022-10-25T13:35:19.527Z,96825.88
2022-10-25T13:37:50.648Z,96614.97
2022-10-25T13:40:20.452Z,96821.53
2022-10-25T13:42:47.784Z,96775.13
2022-10-25T13:45:41.747Z,96820.47
2022-10-25T13:48:14.325Z,96825.06
2022-10-25T13:50:52.932Z,96820.56
2022-10-25T13:53:26.187Z,96819.06
2022-10-25T13:56:05.615Z,96693.19
2022-10-25T13:58:32.552Z,96822.41
2022-10-25T14:01:18.117Z,96828.44
2022-10-25T14:03:54.368Z,96751.88
2022-10-25T14:06:34.247Z,96828.94
2022-10-25T14:09:23.846Z,96826.78
2022-10-25T14:12:14.636Z,96835.25
2022-10-25T14:14:48.290Z,96820.28
2022-10-25T14:17:23.274Z,96760.00
2022-10-25T14:19:51.237Z,96785.06
2022-10-25T14:22:20.787Z,96781.81
2022-10-25T14:24:49.271Z,96797.50
2022-10-25T14:27:26.311Z,96769.53
2022-10-25T14:29:52.931Z,96712.72
2022-10-25T14:32:20.737Z,96573.06
2022-10-25T14:34:51.104Z,96743.31
2022-10-25T14:37:17.701Z,96587.84
2022-10-25T14:39:53.775Z,96834.56
2022-10-25T14:42:20.599Z,96752.13
2022-10-25T14:44:49.102Z,96729.97
2022-10-25T14:47:29.457Z,96808.59
2022-10-25T14:49:57.435Z,96809.47
2022-10-25T14:52:24.969Z,96810.63
2022-10-25T14:54:56.245Z,96833.28
2022-10-25T14:57:24.202Z,96805.31
2022-10-25T14:59:51.226Z,96667.25
2022-10-25T15:02:34.620Z,96797.06
2022-10-25T15:05:02.004Z,96806.31
2022-10-25T15:07:30.928Z,96660.31
2022-10-25T15:09:58.702Z,96655.88
2022-10-25T15:12:29.221Z,96798.00
2022-10-25T15:14:57.419Z,96634.53
2022-10-25T15:17:30.886Z,96775.38
2022-10-25T15:20:16.322Z,96850.16
2022-10-25T15:22:45.367Z,96568.63
2022-10-25T15:25:24.225Z,96842.47
2022-10-25T15:27:51.631Z,96780.66
2022-10-25T15:30:37.853Z,96799.09
2022-10-25T15:33:08.863Z,96787.75
2022-10-25T15:35:41.399Z,96749.72
2022-10-25T15:38:10.076Z,96828.91
2022-10-25T15:40:38.336Z,96711.41
2022-10-25T15:43:05.384Z,96672.91
2022-10-25T15:45:32.417Z,96840.91
2022-10-25T15:47:59.050Z,96783.19
2022-10-25T15:50:26.129Z,96757.06
2022-10-25T15:52:53.890Z,96834.97
2022-10-25T15:55:22.263Z,96810.59
2022-10-25T15:57:48.952Z,96839.88
2022-10-25T16:00:25.703Z,96737.88
2022-10-25T16:02:54.745Z,96640.31
2022-10-25T16:05:30.351Z,96810.28
2022-10-25T16:07:56.961Z,96758.34
2022-10-25T16:10:24.466Z,96618.53
2022-10-25T16:13:01.854Z,96824.13
2022-10-25T16:15:28.487Z,96865.50
2022-10-25T16:17:55.056Z,96843.31
2022-10-25T16:20:23.907Z,96767.50
2022-10-25T16:23:22.658Z,96876.69
2022-10-25T16:25:49.275Z,96717.97
2022-10-25T16:28:16.511Z,96577.88
2022-10-25T16:30:43.906Z,96782.22
2022-10-25T16:33:10.605Z,96849.91
2022-10-25T16:35:37.270Z,96791.75
2022-10-25T16:38:06.698Z,96819.38
2022-10-25T16:40:33.478Z,96856.78
2022-10-25T16:43:00.829Z,96818.09
2022-10-25T16:45:32.192Z,96835.63
2022-10-25T16:51:45.758Z,96841.22
2022-10-25T16:54:12.667Z,96873.16
2022-10-25T16:56:39.716Z,96851.22
2022-10-25T16:59:06.299Z,96864.06
2022-10-25T17:01:34.524Z,96830.19
2022-10-25T17:04:03.454Z,96787.72
2022-10-25T17:06:45.654Z,96885.31
2022-10-25T17:09:12.414Z,96789.97
2022-10-25T17:11:39.116Z,96859.19
2022-10-25T17:14:05.774Z,96819.16
2022-10-25T17:16:32.379Z,96853.13
2022-10-25T17:18:58.961Z,96830.41
2022-10-25T17:21:25.558Z,96774.59
2022-10-25T17:23:52.139Z,96696.94
2022-10-25T17:26:19.022Z,96804.03
2022-10-25T17:28:45.591Z,96880.25
2022-10-25T17:31:13.243Z,96671.28
2022-10-25T17:33:40.673Z,96806.13
2022-10-25T17:36:14.132Z,96916.88
2022-10-25T17:38:40.995Z,96622.59
2022-10-25T17:41:07.750Z,96771.13
2022-10-25T17:43:35.567Z,96833.09
2022-10-25T17:46:09.976Z,96894.22
2022-10-25T17:48:36.554Z,96869.16
2022-10-25T17:51:08.003Z,96823.34
2022-10-25T17:53:34.639Z,96910.84
2022-10-25T17:56:17.602Z,96873.22
2022-10-25T17:58:46.280Z,96865.88
2022-10-25T18:01:14.074Z,96792.31
2022-10-25T18:03:40.760Z,96859.97
2022-10-25T18:06:09.216Z,96858.59
2022-10-25T18:08:38.765Z,96694.03
2022-10-25T18:11:10.105Z,96862.97
2022-10-25T18:13:38.511Z,96872.06
2022-10-25T18:18:33.122Z,96792.06
2022-10-25T18:21:10.295Z,96829.69
2022-10-25T18:23:37.077Z,96840.16
2022-10-25T18:26:05.000Z,96711.47
2022-10-25T18:28:35.276Z,96830.00
2022-10-25T18:31:03.044Z,96785.63
2022-10-25T18:33:30.487Z,96723.88
2022-10-25T18:35:58.518Z,96927.16
2022-10-25T18:38:25.135Z,96863.44
2022-10-25T18:40:51.886Z,96695.63
2022-10-25T18:43:18.468Z,96896.59
2022-10-25T18:45:45.101Z,96842.69
2022-10-25T18:48:12.031Z,96837.22
2022-10-25T18:50:53.118Z,96807.53
2022-10-25T18:53:19.877Z,96719.19
2022-10-25T18:55:52.796Z,96864.22
2022-10-25T18:58:19.506Z,96813.50
2022-10-25T19:00:46.470Z,96855.84
2022-10-25T19:03:14.183Z,96917.34
2022-10-25T19:05:40.864Z,96769.38
2022-10-25T19:08:08.246Z,96875.00
2022-10-25T19:10:41.654Z,96921.50
2022-10-25T19:13:09.372Z,96931.06
2022-10-25T19:15:36.035Z,96639.50
2022-10-25T19:18:02.747Z,96899.75
2022-10-25T19:20:29.363Z,96907.31
2022-10-25T19:22:58.847Z,96907.97
2022-10-25T19:25:28.812Z,96866.81
2022-10-25T19:27:55.795Z,96843.69
2022-10-25T19:30:22.898Z,96855.91
2022-10-25T19:32:49.770Z,96864.59
2022-10-25T19:35:16.869Z,96862.38
2022-10-25T19:37:43.441Z,96893.16
2022-10-25T19:40:10.451Z,96877.84
2022-10-25T19:42:37.294Z,96761.97
2022-10-25T19:45:04.739Z,96856.09
2022-10-25T19:47:31.415Z,96874.69
2022-10-25T19:49:58.042Z,96874.31
2022-10-25T19:52:24.820Z,96912.59
2022-10-25T19:54:51.508Z,96862.16
2022-10-25T19:57:18.106Z,96873.50
2022-10-25T19:59:44.742Z,96815.03
2022-10-25T20:02:11.534Z,96898.84
2022-10-25T20:04:38.225Z,96861.84
2022-10-25T20:07:05.019Z,96922.53
2022-10-25T20:09:31.681Z,96864.28
2022-10-25T20:11:58.252Z,96859.16
2022-10-25T20:14:24.900Z,96895.91
2022-10-25T20:16:51.484Z,96907.06
2022-10-25T20:19:18.170Z,96900.13
2022-10-25T20:21:44.894Z,96867.50
2022-10-25T20:24:11.706Z,96845.47
2022-10-25T20:26:39.954Z,96882.22
2022-10-25T20:29:20.371Z,96879.38
2022-10-25T20:31:53.132Z,96916.84
2022-10-25T20:34:19.932Z,96940.66
2022-10-25T20:36:47.724Z,96952.94
2022-10-25T20:39:14.828Z,96798.50
2022-10-25T20:41:41.540Z,96899.28
2022-10-25T20:44:08.845Z,96706.91
2022-10-25T20:46:35.826Z,96820.94
2022-10-25T20:49:03.578Z,96960.03
2022-10-25T20:51:30.246Z,96887.16
2022-10-25T20:53:57.100Z,96915.88
2022-10-25T20:56:24.003Z,96903.34
2022-10-25T20:58:51.271Z,96918.88
2022-10-25T21:01:17.968Z,96898.72
2022-10-25T21:03:44.901Z,96955.91
2022-10-25T21:06:12.953Z,96914.22
2022-10-25T21:08:39.621Z,96931.38
2022-10-25T21:11:08.039Z,96881.19
2022-10-25T21:13:35.237Z,96943.09
2022-10-25T21:16:20.098Z,96923.44
2022-10-25T21:18:46.719Z,96941.44
2022-10-25T21:21:17.999Z,96622.06
2022-10-25T21:23:46.262Z,96934.69
2022-10-25T21:26:12.895Z,96868.56
2022-10-25T21:28:40.354Z,96952.47
2022-10-25T21:31:11.721Z,96875.88
2022-10-25T21:33:38.637Z,96989.56
2022-10-25T21:36:07.047Z,96950.81
2022-10-25T21:38:33.908Z,96979.41
2022-10-25T21:41:13.921Z,96957.34
2022-10-25T21:43:45.053Z,96922.72
2022-10-25T21:46:12.066Z,96957.94
2022-10-25T21:48:38.763Z,96829.50
2022-10-25T21:51:05.522Z,96970.84
2022-10-25T21:53:32.173Z,96771.69
2022-10-25T21:56:31.296Z,96992.28
2022-10-25T21:58:58.805Z,96855.28
2022-10-25T22:01:27.256Z,96991.09
2022-10-25T22:03:54.032Z,96968.28
2022-10-25T22:06:22.742Z,96885.75
2022-10-25T22:08:49.698Z,96897.09
2022-10-25T22:11:20.811Z,96913.81
2022-10-25T22:13:47.482Z,96996.63
2022-10-25T22:16:18.170Z,96881.78
2022-10-25T22:18:57.679Z,96893.28
2022-10-25T22:21:24.842Z,96926.41
2022-10-25T22:23:51.428Z,96900.75
2022-10-25T22:26:19.637Z,96901.41
2022-10-25T22:28:46.365Z,96917.84
2022-10-25T22:31:14.848Z,96944.50
2022-10-25T22:33:41.750Z,96936.31
2022-10-25T22:36:08.501Z,96992.06
2022-10-25T22:38:35.426Z,96835.22
2022-10-25T22:41:06.421Z,96939.41
2022-10-25T22:43:36.351Z,96817.78
2022-10-25T22:46:04.258Z,96924.91
2022-10-25T22:48:35.736Z,96899.41
2022-10-25T22:51:02.354Z,96993.41
2022-10-25T22:53:29.214Z,96934.78
2022-10-25T22:56:00.285Z,96892.56
2022-10-25T22:58:27.851Z,96959.88
2022-10-25T23:01:06.011Z,96974.31
2022-10-25T23:03:38.512Z,96953.88
2022-10-25T23:06:06.207Z,96927.53
2022-10-25T23:08:32.838Z,96953.88
2022-10-25T23:11:16.229Z,96888.47
2022-10-25T23:13:42.825Z,96814.25
2022-10-25T23:16:10.002Z,96881.28
2022-10-25T23:18:37.072Z,96802.53
2022-10-25T23:21:03.959Z,96733.63
2022-10-25T23:23:33.967Z,96828.25
2022-10-25T23:26:00.943Z,96967.41
2022-10-25T23:28:30.328Z,96939.69
2022-10-25T23:30:57.767Z,96962.88
2022-10-25T23:33:24.538Z,96838.75
2022-10-25T23:35:51.203Z,96840.22
2022-10-25T23:38:17.861Z,96628.03
2022-10-25T23:40:46.878Z,96879.47
2022-10-25T23:43:13.620Z,96884.44
2022-10-25T23:45:42.025Z,96768.81
2022-10-25T23:48:08.620Z,97004.59
2022-10-25T23:50:35.200Z,96720.34
2022-10-25T23:53:01.772Z,96765.22
2022-10-25T23:55:28.343Z,96901.66
2022-10-25T23:57:58.444Z,96893.34
